createdAt,value
2023-02-27T00:00:07.218Z,99177.92
2023-02-27T00:02:36.041Z,99177.88
2023-02-27T00:05:06.617Z,99186.71
2023-02-27T00:07:34.702Z,99188.02
2023-02-27T00:10:05.126Z,99188.41
2023-02-27T00:12:38.112Z,99192.94
2023-02-27T00:15:16.468Z,99191.68
2023-02-27T00:17:47.326Z,99195.56
2023-02-27T00:20:16.641Z,99196.24
2023-02-27T00:22:46.357Z,99192.13
2023-02-27T00:25:14.551Z,99196.25
2023-02-27T00:27:43.080Z,99197.86
2023-02-27T00:30:13.045Z,99199.17
2023-02-27T00:32:45.318Z,99198.19
2023-02-27T00:35:13.671Z,99202.14
2023-02-27T00:37:42.142Z,99201.54
2023-02-27T00:40:11.606Z,99200.65
2023-02-27T00:42:39.895Z,99204.27
2023-02-27T00:45:09.364Z,99199.65
2023-02-27T00:47:38.274Z,99197.04
2023-02-27T00:50:06.638Z,99197.07
2023-02-27T00:52:34.923Z,99200.78
2023-02-27T00:55:03.041Z,99202.17
2023-02-27T00:57:32.115Z,99201.72
2023-02-27T01:00:00.595Z,99201.38
2023-02-27T01:02:32.255Z,99200.52
2023-02-27T01:05:00.585Z,99201.83
2023-02-27T01:07:29.600Z,99202.45
2023-02-27T01:09:57.769Z,99204.14
2023-02-27T01:12:25.877Z,99205.13
2023-02-27T01:14:54.326Z,99210.77
2023-02-27T01:17:22.400Z,99216.11
2023-02-27T01:19:51.603Z,99216.05
2023-02-27T01:22:19.981Z,99214.77
2023-02-27T01:24:48.803Z,99218.50
2023-02-27T01:27:17.205Z,99217.96
2023-02-27T01:29:45.331Z,99225.29
2023-02-27T01:32:13.542Z,99222.30
2023-02-27T01:34:41.801Z,99222.61
2023-02-27T01:37:10.019Z,99222.06
2023-02-27T01:39:38.799Z,99226.49
2023-02-27T01:42:26.505Z,99227.39
2023-02-27T01:45:02.625Z,99239.14
2023-02-27T01:47:32.784Z,99240.05
2023-02-27T01:50:00.831Z,99244.87
2023-02-27T01:52:29.046Z,99248.18
2023-02-27T01:54:57.316Z,99250.30
2023-02-27T01:57:26.743Z,99247.82
2023-02-27T01:59:55.003Z,99255.20
2023-02-27T02:02:31.157Z,99256.59
2023-02-27T02:04:59.444Z,99261.95
2023-02-27T02:07:27.508Z,99262.77
2023-02-27T02:09:57.325Z,99261.15
2023-02-27T02:12:29.104Z,99264.73
2023-02-27T02:14:58.730Z,99264.34
2023-02-27T02:18:00.900Z,99262.34
2023-02-27T02:20:50.794Z,99260.50
2023-02-27T02:23:30.913Z,99262.70
2023-02-27T02:26:33.239Z,99262.31
2023-02-27T02:29:37.240Z,99264.38
2023-02-27T02:32:35.575Z,99267.00
2023-02-27T02:35:45.879Z,99266.17
2023-02-27T02:39:01.018Z,99271.07
2023-02-27T02:41:42.826Z,99274.00
2023-02-27T02:44:24.537Z,99270.59
2023-02-27T02:47:06.443Z,99274.73
2023-02-27T02:49:56.993Z,99276.17
2023-02-27T02:52:31.465Z,99270.56
2023-02-27T02:55:02.431Z,99273.70
2023-02-27T02:57:33.866Z,99276.48
2023-02-27T03:00:07.254Z,99274.44
2023-02-27T03:02:44.909Z,99278.40
2023-02-27T03:05:26.658Z,99273.08
2023-02-27T03:08:13.994Z,99273.73
2023-02-27T03:11:00.152Z,99278.23
2023-02-27T03:13:43.839Z,99282.32
2023-02-27T03:16:26.670Z,99293.88
2023-02-27T03:19:23.234Z,99299.08
2023-02-27T03:22:15.806Z,99300.97
2023-02-27T03:24:50.509Z,99306.23
2023-02-27T03:27:28.257Z,99310.89
2023-02-27T03:30:06.421Z,99310.66
2023-02-27T03:32:46.887Z,99319.91
2023-02-27T03:35:15.464Z,99324.97
2023-02-27T03:37:52.905Z,99325.58
2023-02-27T03:40:31.277Z,99329.29
2023-02-27T03:43:33.564Z,99331.89
2023-02-27T03:46:14.964Z,99338.02
2023-02-27T03:48:44.806Z,99335.32
2023-02-27T03:51:15.012Z,99339.19
2023-02-27T03:54:09.782Z,99338.13
2023-02-27T03:56:44.629Z,99338.92
2023-02-27T03:59:17.533Z,99342.50
2023-02-27T04:01:49.048Z,99347.54
2023-02-27T04:04:17.407Z,99350.20
2023-02-27T04:07:25.874Z,99352.20
2023-02-27T04:10:10.413Z,99351.88
2023-02-27T04:12:50.931Z,99355.98
2023-02-27T04:15:38.296Z,99357.01
2023-02-27T04:18:34.957Z,99356.58
2023-02-27T04:21:27.990Z,99359.34
2023-02-27T04:26:52.922Z,99361.86
2023-02-27T04:29:53.460Z,99367.87
2023-02-27T04:32:54.817Z,99368.32
2023-02-27T04:35:33.485Z,99369.75
2023-02-27T04:38:11.035Z,99371.56
2023-02-27T04:40:47.913Z,99376.88
2023-02-27T04:43:16.079Z,99381.85
2023-02-27T04:45:44.886Z,99386.98
2023-02-27T04:48:21.405Z,99387.73
2023-02-27T04:51:14.709Z,99387.50
2023-02-27T04:53:53.704Z,99393.65
2023-02-27T04:56:28.811Z,99391.37
2023-02-27T04:58:59.892Z,99391.70
2023-02-27T05:01:52.341Z,99391.95
2023-02-27T05:04:21.281Z,99395.70
2023-02-27T05:06:49.371Z,99395.35
2023-02-27T05:09:22.584Z,99397.48
2023-02-27T05:11:55.351Z,99399.85
2023-02-27T05:14:31.476Z,99403.75
2023-02-27T05:17:02.535Z,99405.73
2023-02-27T05:19:32.479Z,99405.97
2023-02-27T05:22:23.838Z,99406.63
2023-02-27T05:25:09.882Z,99408.67
2023-02-27T05:27:44.260Z,99413.14
2023-02-27T05:30:24.281Z,99415.97
2023-02-27T05:32:57.246Z,99417.48
2023-02-27T05:35:47.976Z,99417.65
2023-02-27T05:38:21.144Z,99423.77
2023-02-27T05:40:55.152Z,99423.67
2023-02-27T05:43:26.695Z,99428.39
2023-02-27T05:45:58.299Z,99433.42
2023-02-27T05:48:50.826Z,99435.04
2023-02-27T05:51:18.847Z,99440.11
2023-02-27T05:53:53.384Z,99439.52
2023-02-27T05:56:21.872Z,99443.48
2023-02-27T05:58:54.510Z,99443.33
2023-02-27T06:01:22.773Z,99448.80
2023-02-27T06:03:50.893Z,99448.25
2023-02-27T06:06:19.848Z,99448.27
2023-02-27T06:08:47.956Z,99450.77
2023-02-27T06:11:18.080Z,99452.05
2023-02-27T06:13:46.903Z,99456.27
2023-02-27T06:16:15.083Z,99458.17
2023-02-27T06:18:44.628Z,99463.56
2023-02-27T06:21:13.367Z,99465.92
2023-02-27T06:23:41.750Z,99469.84
2023-02-27T06:26:13.742Z,99471.80
2023-02-27T06:28:42.577Z,99472.50
2023-02-27T06:31:10.893Z,99470.60
2023-02-27T06:33:39.036Z,99473.72
2023-02-27T06:36:08.989Z,99475.85
2023-02-27T06:38:38.169Z,99477.45
2023-02-27T06:41:06.160Z,99482.48
2023-02-27T06:43:36.794Z,99482.08
2023-02-27T06:46:09.250Z,99484.64
2023-02-27T06:48:38.219Z,99491.13
2023-02-27T06:51:07.229Z,99490.61
2023-02-27T06:53:36.425Z,99488.84
2023-02-27T06:56:05.061Z,99491.42
2023-02-27T06:58:33.126Z,99494.70
2023-02-27T07:01:01.194Z,99494.70
2023-02-27T07:03:29.464Z,99503.05
2023-02-27T07:05:59.239Z,99503.17
2023-02-27T07:08:28.201Z,99503.89
2023-02-27T07:10:56.507Z,99508.21
2023-02-27T07:13:24.493Z,99513.58
2023-02-27T07:15:52.822Z,99512.52
2023-02-27T07:18:20.925Z,99517.67
2023-02-27T07:20:51.560Z,99516.83
2023-02-27T07:23:23.788Z,99516.83
2023-02-27T07:25:53.924Z,99521.68
2023-02-27T07:28:22.552Z,99523.77
2023-02-27T07:30:54.434Z,99525.95
2023-02-27T07:33:22.683Z,99527.77
2023-02-27T07:35:50.727Z,99534.17
2023-02-27T07:38:19.400Z,99531.14
2023-02-27T07:40:47.430Z,99530.01
2023-02-27T07:43:16.138Z,99531.96
2023-02-27T07:45:45.042Z,99535.25
2023-02-27T07:48:13.302Z,99535.06
2023-02-27T07:50:42.065Z,99538.46
2023-02-27T07:53:10.302Z,99537.27
2023-02-27T07:55:38.533Z,99538.95
2023-02-27T07:58:08.608Z,99539.91
2023-02-27T08:00:38.484Z,99540.50
2023-02-27T08:03:06.509Z,99541.36
2023-02-27T08:05:36.005Z,99548.75
2023-02-27T08:08:04.218Z,99550.05
2023-02-27T08:10:36.981Z,99553.78
2023-02-27T08:13:06.622Z,99559.00
2023-02-27T08:15:35.683Z,99561.11
2023-02-27T08:18:04.011Z,99558.76
2023-02-27T08:20:32.758Z,99560.96
2023-02-27T08:23:00.697Z,99561.75
2023-02-27T08:25:30.363Z,99567.38
2023-02-27T08:27:58.460Z,99564.87
2023-02-27T08:30:26.760Z,99569.60
2023-02-27T08:32:55.867Z,99568.16
2023-02-27T08:35:24.423Z,99568.55
2023-02-27T08:37:52.734Z,99568.99
2023-02-27T08:40:20.768Z,99569.48
2023-02-27T08:42:51.817Z,99575.06
2023-02-27T08:45:20.154Z,99576.63
2023-02-27T08:47:48.574Z,99581.21
2023-02-27T08:50:17.024Z,99582.69
2023-02-27T08:52:46.455Z,99591.30
2023-02-27T08:55:14.451Z,99593.69
2023-02-27T08:57:43.268Z,99597.55
2023-02-27T09:00:14.744Z,99598.66
2023-02-27T09:02:43.611Z,99597.94
2023-02-27T09:05:11.903Z,99600.13
2023-02-27T09:07:42.615Z,99600.28
2023-02-27T09:10:12.415Z,99598.90
2023-02-27T09:12:44.050Z,99604.71
2023-02-27T09:15:12.149Z,99602.80
2023-02-27T09:17:41.867Z,99599.83
2023-02-27T09:20:11.937Z,99609.75
2023-02-27T09:22:41.600Z,99609.73
2023-02-27T09:25:12.427Z,99611.79
2023-02-27T09:27:41.325Z,99614.01
2023-02-27T09:30:11.385Z,99615.79
2023-02-27T09:32:40.063Z,99618.10
2023-02-27T09:35:09.635Z,99617.55
2023-02-27T09:37:37.886Z,99621.16
2023-02-27T09:40:07.801Z,99623.52
2023-02-27T09:42:42.262Z,99623.66
2023-02-27T09:45:10.550Z,99619.89
2023-02-27T09:47:44.660Z,99623.41
2023-02-27T09:50:38.849Z,99625.44
2023-02-27T09:53:31.464Z,99630.27
2023-02-27T09:56:05.802Z,99633.09
2023-02-27T09:58:46.030Z,99634.72
2023-02-27T10:01:39.520Z,99638.08
2023-02-27T10:04:18.578Z,99639.06
2023-02-27T10:07:23.255Z,99638.14
2023-02-27T10:10:00.726Z,99644.62
2023-02-27T10:12:40.389Z,99645.08
2023-02-27T10:15:29.663Z,99653.82
2023-02-27T10:18:32.023Z,99656.73
2023-02-27T10:21:03.370Z,99653.97
2023-02-27T10:23:34.554Z,99657.59
2023-02-27T10:26:02.815Z,99658.89
2023-02-27T10:28:31.178Z,99663.23
2023-02-27T10:31:02.344Z,99669.43
2023-02-27T10:33:36.234Z,99667.36
2023-02-27T10:36:17.911Z,99667.77
2023-02-27T10:38:54.390Z,99664.00
2023-02-27T10:41:22.517Z,99667.30
2023-02-27T10:43:53.016Z,99663.50
2023-02-27T10:46:26.957Z,99664.05
2023-02-27T10:48:56.032Z,99659.17
2023-02-27T10:51:25.888Z,99659.59
2023-02-27T10:54:15.527Z,99664.30
2023-02-27T10:57:21.227Z,99663.45
2023-02-27T10:59:55.950Z,99667.30
2023-02-27T11:02:40.716Z,99670.39
2023-02-27T11:05:26.136Z,99676.14
2023-02-27T11:08:12.048Z,99676.23
2023-02-27T11:10:54.347Z,99676.49
2023-02-27T11:16:16.170Z,99680.15
2023-02-27T11:18:48.339Z,99678.77
2023-02-27T11:21:30.183Z,99678.84
2023-02-27T11:24:03.960Z,99679.14
2023-02-27T11:26:35.443Z,99680.92
2023-02-27T11:29:20.127Z,99679.05
2023-02-27T11:31:53.632Z,99686.17
2023-02-27T11:34:29.173Z,99681.30
2023-02-27T11:37:07.672Z,99685.96
2023-02-27T11:39:40.905Z,99688.16
2023-02-27T11:42:42.140Z,99691.71
2023-02-27T11:46:04.792Z,99691.11
2023-02-27T11:48:09.494Z,99689.85
2023-02-27T11:51:16.992Z,99689.67
2023-02-27T11:53:52.772Z,99687.42
2023-02-27T11:56:44.947Z,99690.25
2023-02-27T11:59:22.262Z,99689.42
2023-02-27T12:01:55.167Z,99688.54
2023-02-27T12:04:38.311Z,99687.38
2023-02-27T12:07:18.085Z,99686.79
2023-02-27T12:09:51.705Z,99685.20
2023-02-27T12:12:44.741Z,99687.61
2023-02-27T12:15:12.952Z,99688.99
2023-02-27T12:18:08.103Z,99693.19
2023-02-27T12:20:59.283Z,99690.42
2023-02-27T12:23:49.632Z,99692.66
2023-02-27T12:26:37.682Z,99691.45
2023-02-27T12:29:18.468Z,99694.66
2023-02-27T12:31:54.394Z,99697.42
2023-02-27T12:34:44.439Z,99698.16
2023-02-27T12:37:13.849Z,99702.50
2023-02-27T12:39:44.231Z,99704.75
2023-02-27T12:42:27.729Z,99699.08
2023-02-27T12:45:05.011Z,99700.70
2023-02-27T12:47:46.373Z,99698.98
2023-02-27T12:50:21.455Z,99706.08
2023-02-27T12:52:56.275Z,99706.03
2023-02-27T12:55:31.029Z,99711.05
2023-02-27T12:58:21.232Z,99710.30
2023-02-27T13:01:37.613Z,99712.95
2023-02-27T13:04:11.674Z,99717.80
2023-02-27T13:06:47.523Z,99717.58
2023-02-27T13:09:18.474Z,99721.38
2023-02-27T13:12:04.156Z,99725.80
2023-02-27T13:14:38.744Z,99727.90
2023-02-27T13:17:22.873Z,99726.83
2023-02-27T13:19:53.895Z,99737.52
2023-02-27T13:22:43.471Z,99737.21
2023-02-27T13:25:15.603Z,99737.99
2023-02-27T13:27:49.180Z,99737.23
2023-02-27T13:30:35.804Z,99739.93
2023-02-27T13:33:08.176Z,99741.20
2023-02-27T13:36:07.174Z,99742.34
2023-02-27T13:38:44.837Z,99742.85
2023-02-27T13:41:25.381Z,99742.66
2023-02-27T13:44:01.526Z,99746.94
2023-02-27T13:46:33.661Z,99751.58
2023-02-27T13:49:04.658Z,99754.46
2023-02-27T13:51:35.810Z,99754.01
2023-02-27T13:54:16.389Z,99753.04
2023-02-27T13:57:03.530Z,99753.55
2023-02-27T13:59:36.751Z,99756.41
2023-02-27T14:02:11.698Z,99761.71
2023-02-27T14:04:43.164Z,99762.79
2023-02-27T14:07:15.314Z,99760.55
2023-02-27T14:10:11.407Z,99760.00
2023-02-27T14:12:45.891Z,99764.44
2023-02-27T14:15:22.500Z,99763.90
2023-02-27T14:18:09.663Z,99765.30
2023-02-27T14:20:41.350Z,99767.84
2023-02-27T14:23:17.078Z,99771.37
2023-02-27T14:25:45.973Z,99773.07
2023-02-27T14:28:35.339Z,99774.73
2023-02-27T14:31:08.940Z,99777.38
2023-02-27T14:33:46.871Z,99780.52
2023-02-27T14:36:23.421Z,99780.44
2023-02-27T14:38:54.615Z,99784.08
2023-02-27T14:41:29.236Z,99788.16
2023-02-27T14:43:57.935Z,99790.44
2023-02-27T14:46:35.218Z,99787.35
2023-02-27T14:49:08.553Z,99789.80
2023-02-27T14:51:37.033Z,99790.72
2023-02-27T14:54:15.612Z,99789.11
2023-02-27T14:56:57.735Z,99798.30
2023-02-27T14:59:30.886Z,99798.50
2023-02-27T15:02:01.962Z,99805.48
2023-02-27T15:04:31.699Z,99804.38
2023-02-27T15:07:00.129Z,99804.41
2023-02-27T15:09:43.190Z,99807.92
2023-02-27T15:12:16.779Z,99809.81
2023-02-27T15:14:48.069Z,99816.02
2023-02-27T15:17:17.843Z,99819.42
2023-02-27T15:19:57.193Z,99822.48
2023-02-27T15:22:38.973Z,99827.19
2023-02-27T15:25:36.787Z,99826.34
2023-02-27T15:28:08.179Z,99831.35
2023-02-27T15:30:36.808Z,99832.89
2023-02-27T15:33:14.116Z,99837.26
2023-02-27T15:35:43.594Z,99837.23
2023-02-27T15:38:34.970Z,99843.94
2023-02-27T15:41:03.362Z,99847.70
2023-02-27T15:43:31.554Z,99849.75
2023-02-27T15:46:00.519Z,99856.34
2023-02-27T15:48:30.012Z,99861.82
2023-02-27T15:50:59.192Z,99863.50
2023-02-27T15:53:28.486Z,99868.32
2023-02-27T15:55:58.658Z,99871.98
2023-02-27T15:58:48.812Z,99875.09
2023-02-27T16:01:19.696Z,99878.82
2023-02-27T16:03:55.099Z,99888.38
2023-02-27T16:06:31.332Z,99897.77
2023-02-27T16:09:03.198Z,99903.90
2023-02-27T16:11:34.813Z,99907.37
2023-02-27T16:14:03.068Z,99911.63
2023-02-27T16:16:38.820Z,99914.34
2023-02-27T16:19:22.742Z,99920.48
2023-02-27T16:22:18.470Z,99924.59
2023-02-27T16:24:47.542Z,99930.34
2023-02-27T16:27:29.153Z,99929.23
2023-02-27T16:30:02.568Z,99938.81
2023-02-27T16:32:36.316Z,99945.27
2023-02-27T16:35:08.974Z,99947.34
2023-02-27T16:37:38.957Z,99953.61
2023-02-27T16:40:17.613Z,99956.17
2023-02-27T16:42:46.128Z,99958.16
2023-02-27T16:45:28.112Z,99960.44
2023-02-27T16:47:58.262Z,99962.85
2023-02-27T16:50:30.719Z,99964.95
2023-02-27T16:52:59.772Z,99969.39
2023-02-27T16:55:33.506Z,99972.51
2023-02-27T16:58:02.652Z,99980.23
2023-02-27T17:00:34.186Z,99982.98
2023-02-27T17:03:02.626Z,99981.71
2023-02-27T17:05:30.693Z,99991.27
2023-02-27T17:08:01.672Z,99997.08
2023-02-27T17:10:30.519Z,99995.73
2023-02-27T17:12:59.083Z,100000.58
2023-02-27T17:15:29.723Z,100003.38
2023-02-27T17:17:57.802Z,100011.59
2023-02-27T17:20:28.040Z,100010.73
2023-02-27T17:22:58.973Z,100016.80
2023-02-27T17:25:28.103Z,100016.27
2023-02-27T17:27:56.208Z,100020.98
2023-02-27T17:30:24.261Z,100023.70
2023-02-27T17:32:52.602Z,100020.38
2023-02-27T17:35:20.783Z,100024.81
2023-02-27T17:37:48.830Z,100032.66
2023-02-27T17:40:17.166Z,100030.83
2023-02-27T17:42:47.012Z,100035.91
2023-02-27T17:45:15.172Z,100036.29
2023-02-27T17:47:43.974Z,100034.71
2023-02-27T17:50:12.012Z,100034.66
2023-02-27T17:52:41.055Z,100039.30
2023-02-27T17:55:10.018Z,100035.80
2023-02-27T17:57:40.267Z,100039.74
2023-02-27T18:00:09.963Z,100034.98
2023-02-27T18:02:40.498Z,100036.30
2023-02-27T18:05:08.834Z,100040.76
2023-02-27T18:07:36.966Z,100039.70
2023-02-27T18:10:06.568Z,100042.20
2023-02-27T18:12:35.382Z,100047.16
2023-02-27T18:15:07.051Z,100047.07
2023-02-27T18:17:36.563Z,100052.45
2023-02-27T18:20:05.512Z,100052.83
2023-02-27T18:22:34.423Z,100054.48
2023-02-27T18:25:02.892Z,100056.17
2023-02-27T18:27:31.372Z,100057.55
2023-02-27T18:29:59.702Z,100056.02
2023-02-27T18:32:27.816Z,100057.88
2023-02-27T18:34:56.046Z,100060.15
2023-02-27T18:37:24.041Z,100060.59
2023-02-27T18:39:52.164Z,100064.36
2023-02-27T18:42:23.848Z,100069.11
2023-02-27T18:44:52.031Z,100071.52
2023-02-27T18:47:20.122Z,100075.55
2023-02-27T18:49:48.214Z,100074.48
2023-02-27T18:52:16.349Z,100077.66
2023-02-27T18:54:44.403Z,100084.15
2023-02-27T18:57:13.005Z,100085.52
2023-02-27T18:59:41.714Z,100090.65
2023-02-27T19:02:13.729Z,100091.14
2023-02-27T19:04:41.806Z,100094.33
2023-02-27T19:07:09.806Z,100096.65
2023-02-27T19:09:37.953Z,100100.80
2023-02-27T19:12:06.162Z,100101.98
2023-02-27T19:14:38.300Z,100100.52
2023-02-27T19:17:09.234Z,100100.88
2023-02-27T19:19:38.493Z,100105.98
2023-02-27T19:22:06.935Z,100107.72
2023-02-27T19:24:35.973Z,100111.83
2023-02-27T19:27:04.151Z,100113.16
2023-02-27T19:29:36.671Z,100117.72
2023-02-27T19:32:08.380Z,100119.34
2023-02-27T19:34:36.524Z,100117.70
2023-02-27T19:37:04.785Z,100124.19
2023-02-27T19:39:32.875Z,100121.27
2023-02-27T19:42:01.156Z,100122.47
2023-02-27T19:44:29.408Z,100120.44
2023-02-27T19:46:57.504Z,100123.69
2023-02-27T19:49:25.850Z,100128.20
2023-02-27T19:51:55.820Z,100124.02
2023-02-27T19:54:24.956Z,100126.08
2023-02-27T19:56:54.421Z,100128.39
2023-02-27T19:59:24.782Z,100129.30
2023-02-27T20:01:52.871Z,100130.33
2023-02-27T20:04:21.124Z,100126.58
2023-02-27T20:06:53.097Z,100130.13
2023-02-27T20:09:21.654Z,100131.65
2023-02-27T20:11:52.667Z,100128.91
2023-02-27T20:14:24.667Z,100131.89
2023-02-27T20:16:54.393Z,100131.52
2023-02-27T20:19:24.235Z,100133.04
2023-02-27T20:21:52.555Z,100135.11
2023-02-27T20:24:22.377Z,100135.73
2023-02-27T20:26:55.100Z,100136.55
2023-02-27T20:29:24.742Z,100135.48
2023-02-27T20:31:53.528Z,100136.54
2023-02-27T20:34:24.973Z,100136.01
2023-02-27T20:36:54.512Z,100135.21
2023-02-27T20:39:24.480Z,100137.56
2023-02-27T20:41:52.782Z,100134.79
2023-02-27T20:44:20.880Z,100139.96
2023-02-27T20:46:49.610Z,100143.16
2023-02-27T20:49:19.574Z,100142.81
2023-02-27T20:51:47.649Z,100148.90
2023-02-27T20:54:20.490Z,100149.96
2023-02-27T20:56:54.572Z,100152.29
2023-02-27T20:59:24.809Z,100153.86
2023-02-27T21:01:53.414Z,100145.96
2023-02-27T21:04:26.616Z,100151.20
2023-02-27T21:06:57.832Z,100149.95
2023-02-27T21:09:26.020Z,100153.95
2023-02-27T21:11:54.249Z,100149.05
2023-02-27T21:14:23.921Z,100157.87
2023-02-27T21:16:52.170Z,100156.30
2023-02-27T21:19:24.262Z,100159.31
2023-02-27T21:21:52.343Z,100161.35
2023-02-27T21:24:20.913Z,100162.50
2023-02-27T21:26:49.670Z,100168.72
2023-02-27T21:29:20.232Z,100174.38
2023-02-27T21:31:49.224Z,100176.45
2023-02-27T21:34:20.054Z,100180.52
2023-02-27T21:36:54.187Z,100182.05
2023-02-27T21:39:42.113Z,100180.30
2023-02-27T21:42:10.343Z,100180.39
2023-02-27T21:44:38.804Z,100184.65
2023-02-27T21:47:10.313Z,100185.71
2023-02-27T21:49:39.592Z,100190.34
2023-02-27T21:52:08.063Z,100195.02
2023-02-27T21:54:38.970Z,100196.64
2023-02-27T21:57:07.031Z,100198.29
2023-02-27T21:59:35.185Z,100195.67
2023-02-27T22:02:03.372Z,100195.95
2023-02-27T22:04:31.469Z,100196.63
2023-02-27T22:06:59.849Z,100196.71
2023-02-27T22:09:32.698Z,100197.70
2023-02-27T22:12:03.805Z,100195.70
2023-02-27T22:14:32.288Z,100200.23
2023-02-27T22:17:06.108Z,100197.80
2023-02-27T22:19:35.181Z,100197.80
2023-02-27T22:22:03.159Z,100198.43
2023-02-27T22:24:31.758Z,100198.52
2023-02-27T22:27:00.327Z,100197.88
2023-02-27T22:29:29.127Z,100199.15
2023-02-27T22:31:57.416Z,100196.13
2023-02-27T22:34:27.081Z,100197.06
2023-02-27T22:36:56.357Z,100197.45
2023-02-27T22:39:27.438Z,100195.23
2023-02-27T22:41:56.892Z,100189.52
2023-02-27T22:44:25.234Z,100190.52
2023-02-27T22:46:54.749Z,100189.52
2023-02-27T22:49:23.418Z,100190.30
2023-02-27T22:51:52.376Z,100192.45
2023-02-27T22:54:21.641Z,100193.52
2023-02-27T22:56:51.139Z,100195.29
2023-02-27T22:59:28.293Z,100195.27
2023-02-27T23:01:56.364Z,100195.48
2023-02-27T23:04:24.408Z,100196.33
2023-02-27T23:06:53.018Z,100197.25
2023-02-27T23:09:22.859Z,100193.06
2023-02-27T23:11:54.733Z,100193.38
2023-02-27T23:14:23.769Z,100192.08
2023-02-27T23:16:51.866Z,100196.60
2023-02-27T23:19:20.891Z,100199.23
2023-02-27T23:21:54.724Z,100203.16
2023-02-27T23:24:22.837Z,100202.14
2023-02-27T23:26:52.720Z,100202.11
2023-02-27T23:29:21.856Z,100202.35
2023-02-27T23:31:50.636Z,100205.46
2023-02-27T23:35:16.454Z,100205.64
2023-02-27T23:37:44.619Z,100205.67
2023-02-27T23:40:14.246Z,100207.14
2023-02-27T23:43:01.187Z,100205.96
2023-02-27T23:45:32.575Z,100202.58
2023-02-27T23:48:01.625Z,100203.32
2023-02-27T23:50:32.453Z,100197.58
2023-02-27T23:53:00.526Z,100198.15
2023-02-27T23:55:29.705Z,100198.20
2023-02-27T23:57:58.677Z,100197.36
